createdAt,value
2023-05-14T00:01:51.968Z,16.00
2023-05-14T00:04:19.679Z,16.12
2023-05-14T00:06:46.960Z,16.02
2023-05-14T00:09:16.367Z,15.83
2023-05-14T00:11:43.427Z,16.20
2023-05-14T00:14:10.552Z,15.69
2023-05-14T00:16:37.737Z,15.87
2023-05-14T00:19:05.057Z,15.87
2023-05-14T00:21:32.254Z,16.01
2023-05-14T00:24:01.626Z,15.72
2023-05-14T00:26:28.717Z,15.76
2023-05-14T00:28:55.834Z,15.87
2023-05-14T00:31:22.923Z,15.83
2023-05-14T00:33:50.001Z,15.76
2023-05-14T00:36:17.025Z,15.65
2023-05-14T00:38:44.097Z,15.72
2023-05-14T00:41:11.172Z,15.74
2023-05-14T00:43:38.276Z,15.69
2023-05-14T00:46:05.916Z,15.73
2023-05-14T00:48:33.094Z,15.50
2023-05-14T00:51:00.452Z,15.63
2023-05-14T00:53:27.735Z,15.53
2023-05-14T00:55:54.866Z,15.48
2023-05-14T00:58:22.714Z,15.30
2023-05-14T01:00:49.916Z,15.27
2023-05-14T01:03:19.204Z,15.33
2023-05-14T01:06:13.627Z,15.21
2023-05-14T01:09:32.593Z,14.91
2023-05-14T01:12:53.107Z,14.97
2023-05-14T01:15:31.166Z,15.22
2023-05-14T01:18:25.045Z,15.29
2023-05-14T01:20:52.704Z,15.17
2023-05-14T01:23:19.960Z,15.03
2023-05-14T01:25:47.166Z,14.88
2023-05-14T01:28:32.799Z,15.05
2023-05-14T01:31:25.134Z,14.85
2023-05-14T01:33:54.541Z,14.78
2023-05-14T01:36:23.022Z,15.18
2023-05-14T01:38:52.779Z,14.96
2023-05-14T01:41:21.276Z,15.37
2023-05-14T01:43:48.643Z,15.13
2023-05-14T01:46:19.741Z,15.29
2023-05-14T01:48:46.966Z,14.79
2023-05-14T01:51:14.684Z,14.70
2023-05-14T01:53:41.793Z,14.74
2023-05-14T01:56:08.878Z,14.42
2023-05-14T01:58:35.998Z,14.35
2023-05-14T02:01:03.104Z,14.14
2023-05-14T02:03:30.163Z,14.30
2023-05-14T02:05:57.226Z,14.26
2023-05-14T02:08:24.368Z,14.68
2023-05-14T02:10:51.455Z,14.22
2023-05-14T02:13:21.638Z,14.22
2023-05-14T02:15:49.804Z,14.08
2023-05-14T02:18:17.016Z,14.21
2023-05-14T02:20:44.253Z,14.26
2023-05-14T02:23:11.374Z,14.63
2023-05-14T02:25:38.762Z,14.39
2023-05-14T02:28:05.845Z,14.35
2023-05-14T02:30:33.053Z,14.83
2023-05-14T02:33:00.452Z,14.77
2023-05-14T02:35:27.539Z,14.46
2023-05-14T02:37:54.702Z,14.92
2023-05-14T02:40:21.923Z,14.73
2023-05-14T02:42:51.346Z,14.35
2023-05-14T02:45:18.502Z,14.76
2023-05-14T02:47:45.864Z,14.70
2023-05-14T02:50:12.967Z,14.74
2023-05-14T02:52:40.142Z,14.61
2023-05-14T02:55:07.785Z,14.88
2023-05-14T02:57:34.976Z,15.30
2023-05-14T03:00:02.323Z,15.50
2023-05-14T03:02:29.882Z,14.90
2023-05-14T03:04:57.638Z,14.87
2023-05-14T03:07:24.700Z,14.91
2023-05-14T03:09:51.726Z,15.49
2023-05-14T03:12:19.332Z,15.39
2023-05-14T03:14:46.377Z,15.13
2023-05-14T03:17:13.470Z,15.09
2023-05-14T03:19:40.572Z,15.23
2023-05-14T03:22:07.639Z,15.48
2023-05-14T03:24:35.261Z,15.43
2023-05-14T03:27:02.282Z,15.42
2023-05-14T03:29:29.583Z,15.11
2023-05-14T03:31:56.678Z,15.19
2023-05-14T03:34:23.904Z,15.03
2023-05-14T03:36:53.169Z,15.44
2023-05-14T03:39:20.990Z,15.35
2023-05-14T03:41:48.697Z,15.32
2023-05-14T03:44:16.959Z,15.16
2023-05-14T03:46:44.402Z,14.93
2023-05-14T03:49:11.500Z,15.12
2023-05-14T03:51:38.567Z,15.03
2023-05-14T03:54:05.818Z,14.70
2023-05-14T03:56:32.870Z,14.91
2023-05-14T03:58:59.944Z,14.88
2023-05-14T04:01:27.052Z,15.05
2023-05-14T04:03:54.337Z,15.43
2023-05-14T04:06:21.501Z,15.22
2023-05-14T04:08:48.598Z,15.38
2023-05-14T04:11:15.714Z,15.45
2023-05-14T04:13:42.804Z,15.41
2023-05-14T04:16:09.853Z,15.21
2023-05-14T04:18:37.090Z,15.61
2023-05-14T04:21:04.402Z,15.89
2023-05-14T04:23:31.883Z,15.90
2023-05-14T04:25:59.357Z,15.73
2023-05-14T04:28:26.468Z,15.66
2023-05-14T04:30:53.494Z,16.18
2023-05-14T04:33:20.689Z,15.98
2023-05-14T04:35:47.927Z,16.06
2023-05-14T04:38:15.264Z,16.10
2023-05-14T04:40:42.796Z,16.84
2023-05-14T04:43:10.559Z,16.77
2023-05-14T04:45:37.794Z,16.69
2023-05-14T04:48:05.834Z,17.26
2023-05-14T04:50:32.916Z,16.45
2023-05-14T04:52:59.989Z,17.17
2023-05-14T04:55:27.243Z,17.63
2023-05-14T04:57:54.341Z,17.86
2023-05-14T05:00:22.147Z,18.04
2023-05-14T05:02:49.768Z,17.97
2023-05-14T05:05:16.953Z,17.26
2023-05-14T05:07:43.993Z,17.52
2023-05-14T05:10:11.257Z,18.07
2023-05-14T05:12:38.526Z,18.83
2023-05-14T05:15:07.027Z,18.60
2023-05-14T05:17:34.257Z,18.39
2023-05-14T05:20:01.317Z,18.47
2023-05-14T05:22:28.359Z,18.26
2023-05-14T05:24:55.435Z,18.06
2023-05-14T05:27:22.589Z,18.03
2023-05-14T05:29:49.634Z,18.01
2023-05-14T05:32:16.709Z,18.09
2023-05-14T05:34:43.842Z,18.40
2023-05-14T05:37:12.748Z,18.81
2023-05-14T05:39:40.202Z,18.67
2023-05-14T05:42:08.040Z,18.82
2023-05-14T05:44:35.466Z,18.51
2023-05-14T05:47:02.701Z,17.90
2023-05-14T05:49:31.169Z,17.98
2023-05-14T05:52:16.894Z,18.03
2023-05-14T05:54:43.956Z,18.38
2023-05-14T05:57:11.234Z,18.67
2023-05-14T05:59:38.339Z,18.64
2023-05-14T06:02:05.745Z,18.38
2023-05-14T06:04:32.940Z,18.15
2023-05-14T06:06:59.995Z,18.84
2023-05-14T06:09:27.040Z,19.18
2023-05-14T06:11:54.098Z,18.95
2023-05-14T06:14:21.129Z,18.95
2023-05-14T06:16:48.218Z,19.47
2023-05-14T06:19:15.395Z,19.61
2023-05-14T06:21:42.538Z,19.34
2023-05-14T06:24:10.400Z,19.67
2023-05-14T06:26:37.544Z,19.07
2023-05-14T06:29:04.630Z,19.27
2023-05-14T06:31:31.787Z,18.63
2023-05-14T06:33:58.817Z,18.60
2023-05-14T06:36:25.892Z,19.12
2023-05-14T06:38:52.928Z,18.99
2023-05-14T06:41:19.979Z,18.64
2023-05-14T06:43:47.022Z,19.56
2023-05-14T06:46:16.359Z,19.76
2023-05-14T06:48:43.455Z,19.12
2023-05-14T06:51:11.112Z,19.49
2023-05-14T06:53:41.162Z,19.08
2023-05-14T06:56:08.266Z,19.91
2023-05-14T06:58:35.345Z,20.34
2023-05-14T07:01:02.441Z,20.57
2023-05-14T07:03:29.532Z,19.79
2023-05-14T07:05:56.608Z,20.24
2023-05-14T07:08:23.659Z,20.60
2023-05-14T07:10:50.746Z,20.33
2023-05-14T07:13:18.022Z,20.50
2023-05-14T07:15:45.174Z,20.53
2023-05-14T07:18:12.200Z,20.67
2023-05-14T07:20:40.600Z,21.41
2023-05-14T07:23:10.587Z,21.59
2023-05-14T07:25:40.753Z,21.09
2023-05-14T07:28:07.801Z,21.73
2023-05-14T07:30:34.858Z,21.79
2023-05-14T07:33:02.029Z,22.11
2023-05-14T07:35:29.195Z,22.59
2023-05-14T07:37:56.501Z,22.22
2023-05-14T07:40:25.514Z,21.61
2023-05-14T07:42:52.915Z,21.50
2023-05-14T07:45:20.253Z,21.89
2023-05-14T07:47:51.852Z,22.23
2023-05-14T07:50:19.755Z,21.76
2023-05-14T07:52:46.920Z,20.92
2023-05-14T07:55:14.181Z,20.74
2023-05-14T07:57:41.366Z,21.34
2023-05-14T08:00:09.240Z,21.36
2023-05-14T08:02:36.623Z,20.92
2023-05-14T08:05:04.553Z,20.99
2023-05-14T08:07:31.765Z,21.42
2023-05-14T08:10:02.007Z,20.83
2023-05-14T08:12:29.828Z,21.02
2023-05-14T08:14:56.945Z,20.47
2023-05-14T08:17:24.015Z,21.28
2023-05-14T08:19:51.117Z,21.93
2023-05-14T08:22:18.165Z,20.98
2023-05-14T08:24:45.187Z,21.44
2023-05-14T08:27:12.216Z,21.71
2023-05-14T08:29:39.526Z,21.41
2023-05-14T08:32:19.385Z,22.08
2023-05-14T08:34:50.795Z,22.37
2023-05-14T08:37:17.969Z,22.09
2023-05-14T08:39:45.161Z,22.35
2023-05-14T08:42:15.632Z,21.62
2023-05-14T08:45:04.410Z,21.98
2023-05-14T08:47:31.666Z,22.28
2023-05-14T08:50:06.507Z,21.71
2023-05-14T08:52:34.795Z,22.66
2023-05-14T08:55:06.214Z,21.21
2023-05-14T08:57:36.786Z,21.92
2023-05-14T09:00:11.520Z,22.78
2023-05-14T09:02:43.080Z,22.26
2023-05-14T09:05:10.805Z,21.78
2023-05-14T09:07:38.483Z,22.39
2023-05-14T09:10:06.684Z,23.82
2023-05-14T09:12:33.798Z,22.96
2023-05-14T09:15:00.937Z,23.69
2023-05-14T09:17:28.310Z,23.61
2023-05-14T09:19:55.812Z,24.67
2023-05-14T09:22:22.912Z,22.66
2023-05-14T09:25:09.467Z,24.47
2023-05-14T09:27:36.863Z,24.31
2023-05-14T09:30:09.431Z,24.02
2023-05-14T09:32:49.868Z,23.45
2023-05-14T09:35:25.856Z,23.84
2023-05-14T09:37:55.356Z,23.12
2023-05-14T09:40:24.658Z,23.63
2023-05-14T09:42:52.145Z,23.40
2023-05-14T09:45:19.195Z,25.92
2023-05-14T09:47:46.396Z,24.57
2023-05-14T09:50:13.759Z,23.96
2023-05-14T09:52:41.216Z,26.00
2023-05-14T09:55:08.959Z,26.40
2023-05-14T09:57:36.584Z,24.75
2023-05-14T10:00:04.485Z,24.22
2023-05-14T10:02:41.508Z,24.90
2023-05-14T10:05:09.829Z,24.50
2023-05-14T10:07:48.265Z,26.49
2023-05-14T10:10:24.442Z,25.03
2023-05-14T10:12:58.746Z,26.94
2023-05-14T10:15:52.948Z,25.81
2023-05-14T10:18:22.532Z,24.67
2023-05-14T10:21:06.830Z,25.22
2023-05-14T10:23:37.771Z,27.00
2023-05-14T10:26:05.746Z,25.93
2023-05-14T10:28:33.610Z,26.29
2023-05-14T10:31:01.322Z,26.82
2023-05-14T10:33:28.680Z,26.86
2023-05-14T10:36:10.048Z,25.38
2023-05-14T10:38:38.529Z,26.38
2023-05-14T10:41:10.926Z,25.96
2023-05-14T10:43:41.621Z,24.99
2023-05-14T10:46:12.202Z,25.54
2023-05-14T10:48:44.194Z,26.73
2023-05-14T10:51:12.526Z,28.68
2023-05-14T10:53:42.968Z,27.04
2023-05-14T10:56:14.589Z,25.96
2023-05-14T10:58:46.093Z,27.32
2023-05-14T11:01:14.239Z,26.84
2023-05-14T11:03:45.449Z,25.40
2023-05-14T11:06:15.386Z,27.53
2023-05-14T11:08:43.030Z,25.89
2023-05-14T11:11:10.946Z,25.45
2023-05-14T11:13:41.714Z,24.84
2023-05-14T11:16:21.851Z,24.28
2023-05-14T11:19:03.505Z,25.02
2023-05-14T11:21:32.781Z,25.48
2023-05-14T11:24:05.294Z,25.28
2023-05-14T11:26:33.049Z,25.53
2023-05-14T11:29:00.608Z,25.96
2023-05-14T11:31:28.435Z,25.47
2023-05-14T11:33:55.932Z,25.49
2023-05-14T11:36:23.170Z,24.76
2023-05-14T11:38:52.362Z,24.50
2023-05-14T11:41:21.555Z,25.47
2023-05-14T11:43:49.035Z,25.90
2023-05-14T11:46:19.348Z,26.66
2023-05-14T11:48:46.762Z,25.30
2023-05-14T11:51:15.075Z,25.54
2023-05-14T11:53:42.331Z,25.49
2023-05-14T11:56:10.085Z,24.56
2023-05-14T11:58:37.542Z,24.15
2023-05-14T12:01:04.841Z,24.01
2023-05-14T12:03:32.174Z,24.42
2023-05-14T12:06:02.094Z,24.93
2023-05-14T12:08:31.687Z,24.74
2023-05-14T12:11:00.994Z,24.54
2023-05-14T12:13:31.193Z,24.61
2023-05-14T12:16:01.935Z,24.86
2023-05-14T12:18:32.340Z,25.36
2023-05-14T12:21:05.891Z,25.52
2023-05-14T12:23:33.365Z,24.79
2023-05-14T12:26:08.958Z,24.78
2023-05-14T12:28:43.462Z,26.05
2023-05-14T12:31:11.844Z,24.90
2023-05-14T12:33:41.281Z,25.75
2023-05-14T12:38:41.752Z,26.00
2023-05-14T12:41:08.969Z,25.31
2023-05-14T12:43:36.384Z,25.41
2023-05-14T12:46:03.533Z,24.70
2023-05-14T12:48:30.593Z,27.09
2023-05-14T12:50:57.635Z,24.40
2023-05-14T12:53:24.752Z,26.36
2023-05-14T12:55:54.444Z,25.46
2023-05-14T12:58:21.522Z,25.09
2023-05-14T13:00:51.281Z,26.29
2023-05-14T13:03:18.834Z,26.18
2023-05-14T13:05:46.189Z,24.65
2023-05-14T13:08:17.617Z,26.27
2023-05-14T13:10:45.464Z,25.03
2023-05-14T13:13:14.950Z,24.40
2023-05-14T13:15:42.641Z,24.15
2023-05-14T13:18:09.776Z,24.71
2023-05-14T13:20:37.128Z,24.11
2023-05-14T13:23:04.189Z,24.70
2023-05-14T13:25:31.296Z,25.99
2023-05-14T13:27:58.625Z,25.50
2023-05-14T13:30:25.752Z,25.96
2023-05-14T13:32:52.861Z,26.10
2023-05-14T13:35:19.951Z,25.78
2023-05-14T13:37:47.649Z,26.13
2023-05-14T13:40:14.796Z,24.68
2023-05-14T13:42:41.870Z,25.71
2023-05-14T13:45:11.472Z,25.16
2023-05-14T13:47:41.457Z,24.63
2023-05-14T13:50:09.013Z,24.67
2023-05-14T13:52:36.525Z,26.03
2023-05-14T13:55:04.200Z,26.39
2023-05-14T13:57:31.250Z,25.61
2023-05-14T13:59:58.367Z,25.26
2023-05-14T14:02:25.545Z,24.72
2023-05-14T14:04:52.749Z,24.19
2023-05-14T14:07:21.139Z,24.16
2023-05-14T14:09:48.269Z,24.56
2023-05-14T14:12:15.502Z,23.84
2023-05-14T14:14:44.570Z,24.37
2023-05-14T14:17:11.889Z,24.13
2023-05-14T14:19:38.957Z,24.28
2023-05-14T14:22:06.084Z,24.19
2023-05-14T14:24:33.181Z,23.82
2023-05-14T14:27:03.771Z,23.57
2023-05-14T14:29:31.189Z,23.69
2023-05-14T14:31:59.111Z,23.93
2023-05-14T14:34:26.366Z,23.81
2023-05-14T14:36:53.523Z,23.58
2023-05-14T14:39:21.735Z,23.82
2023-05-14T14:41:48.868Z,23.77
2023-05-14T14:44:15.971Z,23.43
2023-05-14T14:46:43.024Z,23.65
2023-05-14T14:49:10.113Z,23.84
2023-05-14T14:51:37.313Z,24.10
2023-05-14T14:54:07.210Z,23.03
2023-05-14T14:56:34.631Z,24.00
2023-05-14T14:59:02.113Z,23.47
2023-05-14T15:01:29.281Z,23.76
2023-05-14T15:03:58.678Z,23.42
2023-05-14T15:06:25.724Z,23.11
2023-05-14T15:08:52.865Z,23.53
2023-05-14T15:11:21.329Z,24.47
2023-05-14T15:13:49.652Z,23.73
2023-05-14T15:16:16.926Z,23.42
2023-05-14T15:18:44.070Z,23.75
2023-05-14T15:21:11.237Z,23.81
2023-05-14T15:23:38.335Z,23.97
2023-05-14T15:26:05.652Z,23.96
2023-05-14T15:28:33.184Z,24.27
2023-05-14T15:31:02.309Z,23.61
2023-05-14T15:33:33.863Z,23.90
2023-05-14T15:36:00.906Z,23.67
2023-05-14T15:38:28.221Z,23.85
2023-05-14T15:40:55.312Z,23.95
2023-05-14T15:43:22.552Z,23.28
2023-05-14T15:45:55.944Z,23.30
2023-05-14T15:48:23.017Z,23.15
2023-05-14T15:50:50.245Z,23.80
2023-05-14T15:53:19.705Z,23.54
2023-05-14T15:55:49.029Z,23.29
2023-05-14T15:58:16.097Z,23.58
2023-05-14T16:00:43.226Z,23.77
2023-05-14T16:03:11.004Z,23.44
2023-05-14T16:05:38.251Z,23.26
2023-05-14T16:08:06.324Z,23.32
2023-05-14T16:10:33.554Z,23.31
2023-05-14T16:13:00.892Z,23.16
2023-05-14T16:15:28.285Z,24.38
2023-05-14T16:17:55.730Z,23.41
2023-05-14T16:20:23.341Z,24.01
2023-05-14T16:22:50.526Z,23.46
2023-05-14T16:25:19.795Z,23.86
2023-05-14T16:27:46.881Z,23.79
2023-05-14T16:30:14.233Z,23.79
2023-05-14T16:32:42.060Z,23.74
2023-05-14T16:35:09.884Z,23.65
2023-05-14T16:37:36.962Z,23.41
2023-05-14T16:40:04.880Z,23.08
2023-05-14T16:42:31.978Z,23.51
2023-05-14T16:44:59.025Z,23.16
2023-05-14T16:47:26.067Z,22.94
2023-05-14T16:49:53.293Z,23.20
2023-05-14T16:52:23.318Z,23.31
2023-05-14T16:54:50.900Z,23.24
2023-05-14T16:57:18.003Z,23.41
2023-05-14T16:59:45.291Z,23.37
2023-05-14T17:02:12.324Z,23.20
2023-05-14T17:04:42.035Z,22.96
2023-05-14T17:07:09.510Z,23.13
2023-05-14T17:09:36.604Z,22.84
2023-05-14T17:12:04.343Z,22.43
2023-05-14T17:14:31.671Z,22.59
2023-05-14T17:16:58.851Z,22.62
2023-05-14T17:19:26.120Z,22.38
2023-05-14T17:21:53.186Z,22.33
2023-05-14T17:24:20.295Z,22.24
2023-05-14T17:26:47.582Z,22.26
2023-05-14T17:29:15.813Z,22.06
2023-05-14T17:31:43.201Z,22.19
2023-05-14T17:34:10.385Z,21.72
2023-05-14T17:36:37.480Z,22.27
2023-05-14T17:39:04.622Z,21.72
2023-05-14T17:41:31.723Z,21.55
2023-05-14T17:43:59.985Z,21.77
2023-05-14T17:46:27.180Z,22.17
2023-05-14T17:48:58.124Z,22.03
2023-05-14T17:51:27.567Z,22.10
2023-05-14T17:53:54.627Z,22.15
2023-05-14T17:56:22.083Z,22.15
2023-05-14T17:58:49.869Z,21.96
2023-05-14T18:01:16.941Z,21.72
2023-05-14T18:03:44.248Z,21.91
2023-05-14T18:06:11.570Z,21.91
2023-05-14T18:08:41.169Z,21.73
2023-05-14T18:11:08.479Z,21.95
2023-05-14T18:13:38.122Z,22.06
2023-05-14T18:16:05.756Z,21.94
2023-05-14T18:18:33.073Z,22.09
2023-05-14T18:21:00.510Z,21.87
2023-05-14T18:23:27.837Z,21.54
2023-05-14T18:25:55.054Z,21.07
2023-05-14T18:28:24.563Z,21.45
2023-05-14T18:30:51.823Z,21.07
2023-05-14T18:33:18.930Z,21.10
2023-05-14T18:35:46.001Z,21.08
2023-05-14T18:38:13.765Z,21.25
2023-05-14T18:40:40.946Z,21.47
2023-05-14T18:43:08.037Z,20.74
2023-05-14T18:45:35.216Z,20.65
2023-05-14T18:48:02.279Z,20.92
2023-05-14T18:50:29.488Z,20.43
2023-05-14T18:52:59.326Z,20.45
2023-05-14T18:55:26.587Z,20.31
2023-05-14T18:57:54.097Z,19.92
2023-05-14T19:00:21.245Z,19.54
2023-05-14T19:02:48.380Z,19.35
2023-05-14T19:05:15.559Z,19.17
2023-05-14T19:07:43.680Z,19.37
2023-05-14T19:10:11.162Z,19.73
2023-05-14T19:12:38.235Z,20.21
2023-05-14T19:15:06.441Z,20.06
2023-05-14T19:17:33.891Z,19.94
2023-05-14T19:20:00.924Z,20.07
2023-05-14T19:22:28.021Z,19.97
2023-05-14T19:24:55.113Z,18.94
2023-05-14T19:27:24.024Z,18.63
2023-05-14T19:29:51.181Z,18.54
2023-05-14T19:32:18.341Z,18.35
2023-05-14T19:34:45.412Z,18.50
2023-05-14T19:37:12.451Z,17.91
2023-05-14T19:39:39.540Z,17.79
2023-05-14T19:42:06.838Z,17.77
2023-05-14T19:44:33.920Z,17.72
2023-05-14T19:47:01.324Z,17.63
2023-05-14T19:49:28.419Z,17.96
2023-05-14T19:51:55.460Z,18.33
2023-05-14T19:54:24.602Z,18.74
2023-05-14T19:56:51.698Z,19.24
2023-05-14T19:59:18.723Z,18.51
2023-05-14T20:01:47.090Z,18.18
2023-05-14T20:04:16.066Z,17.72
2023-05-14T20:06:45.435Z,17.47
2023-05-14T20:09:13.630Z,17.15
2023-05-14T20:11:40.781Z,16.88
2023-05-14T20:14:07.824Z,16.66
2023-05-14T20:16:34.889Z,16.47
2023-05-14T20:19:02.240Z,16.67
2023-05-14T20:21:29.540Z,16.71
2023-05-14T20:23:56.727Z,16.81
2023-05-14T20:26:23.876Z,17.03
2023-05-14T20:28:50.959Z,17.27
2023-05-14T20:31:19.109Z,16.98
2023-05-14T20:33:46.160Z,16.86
2023-05-14T20:36:13.263Z,16.94
2023-05-14T20:38:40.769Z,16.85
2023-05-14T20:41:08.976Z,16.47
2023-05-14T20:43:36.054Z,16.13
2023-05-14T20:46:05.679Z,16.28
2023-05-14T20:48:32.774Z,16.45
2023-05-14T20:50:59.947Z,16.46
2023-05-14T20:53:28.657Z,16.35
2023-05-14T20:55:55.773Z,16.02
2023-05-14T20:58:22.810Z,15.50
2023-05-14T21:00:52.479Z,15.30
2023-05-14T21:03:19.671Z,15.57
2023-05-14T21:05:46.935Z,15.22
2023-05-14T21:08:14.009Z,15.87
2023-05-14T21:10:41.073Z,16.77
2023-05-14T21:13:08.530Z,16.49
2023-05-14T21:15:35.686Z,14.91
2023-05-14T21:18:03.153Z,15.59
2023-05-14T21:20:33.092Z,15.24
2023-05-14T21:23:00.266Z,15.65
2023-05-14T21:25:27.496Z,15.75
2023-05-14T21:27:54.605Z,15.17
2023-05-14T21:30:22.431Z,15.88
2023-05-14T21:32:49.555Z,16.07
2023-05-14T21:35:16.750Z,15.98
2023-05-14T21:37:43.984Z,15.87
2023-05-14T21:40:14.965Z,16.33
2023-05-14T21:42:42.022Z,16.45
2023-05-14T21:45:09.832Z,15.85
2023-05-14T21:47:37.971Z,15.31
2023-05-14T21:50:06.827Z,14.59
2023-05-14T21:52:33.889Z,14.67
2023-05-14T21:55:00.931Z,15.51
2023-05-14T21:57:29.206Z,15.96
2023-05-14T21:59:58.115Z,16.20
2023-05-14T22:02:25.333Z,16.21
2023-05-14T22:04:52.583Z,16.29
2023-05-14T22:07:19.798Z,16.51
2023-05-14T22:09:48.217Z,16.00
2023-05-14T22:12:15.408Z,15.43
2023-05-14T22:14:42.539Z,15.56
2023-05-14T22:17:09.699Z,15.89
2023-05-14T22:19:36.765Z,15.10
2023-05-14T22:22:04.129Z,15.09
2023-05-14T22:24:31.195Z,14.64
2023-05-14T22:26:58.235Z,14.04
2023-05-14T22:29:25.381Z,14.05
2023-05-14T22:31:52.660Z,13.90
2023-05-14T22:34:19.863Z,13.84
2023-05-14T22:36:47.061Z,13.76
2023-05-14T22:39:15.462Z,13.88
2023-05-14T22:41:42.592Z,13.92
2023-05-14T22:44:09.712Z,13.78
2023-05-14T22:46:36.905Z,14.01
2023-05-14T22:49:04.014Z,13.43
2023-05-14T22:51:31.150Z,13.10
2023-05-14T22:53:58.329Z,13.24
2023-05-14T22:56:25.608Z,13.85
2023-05-14T22:58:52.649Z,13.78
2023-05-14T23:01:19.721Z,13.46
2023-05-14T23:03:46.809Z,13.48
2023-05-14T23:06:14.726Z,13.20
2023-05-14T23:08:42.901Z,13.20
2023-05-14T23:11:10.267Z,13.10
2023-05-14T23:13:37.332Z,13.85
2023-05-14T23:16:05.956Z,14.20
2023-05-14T23:18:33.183Z,14.35
2023-05-14T23:21:00.400Z,13.41
2023-05-14T23:23:27.468Z,12.83
2023-05-14T23:25:55.944Z,12.63
2023-05-14T23:28:24.123Z,12.84
2023-05-14T23:30:51.171Z,13.01
2023-05-14T23:33:19.004Z,13.06
2023-05-14T23:35:46.199Z,13.15
2023-05-14T23:38:14.450Z,13.06
2023-05-14T23:40:41.502Z,13.18
2023-05-14T23:43:08.578Z,13.06
2023-05-14T23:45:37.994Z,13.10
2023-05-14T23:48:05.838Z,13.29
2023-05-14T23:50:32.909Z,13.24
2023-05-14T23:52:59.985Z,13.17
2023-05-14T23:55:27.254Z,12.84
2023-05-14T23:57:54.429Z,12.57
